Time;durP1;ratioP1;P1;durP2;ratioP2;P2;SDS_P1;SDS_P2;PMS_P1;PMS_P2;Temp;Humidity;BMP_temperature;BMP_pressure;BME280_temperature;BME280_humidity;BME280_pressure;Samples;Min_cycle;Max_cycle;Signal;HPM_P1;HPM_P2
2021/11/19 00:01:56;;;;;;;5.68;4.28;;;;;;;10.74;94.58;102967.72;5027152;28;20103;-81
2021/11/19 00:04:21;;;;;;;;;;;;;;;10.76;94.43;102962.47;5028053;28;20057;-81
2021/11/19 00:06:47;;;;;;;6.57;3.92;;;;;;;10.76;94.51;102963.31;5045106;28;20109;-81
2021/11/19 00:09:12;;;;;;;11.90;4.13;;;;;;;10.77;94.30;102966.84;5044425;28;20039;-81
2021/11/19 00:11:40;;;;;;;9.98;4.47;;;;;;;10.78;94.34;102965.06;5043859;28;20271;-81
2021/11/19 00:14:06;;;;;;;10.73;4.72;;;;;;;10.78;94.35;102965.06;5043765;28;20416;-81
2021/11/19 00:16:31;;;;;;;9.57;4.78;;;;;;;10.78;94.31;102967.69;5010586;28;20033;-81
2021/11/19 00:18:57;;;;;;;10.93;5.30;;;;;;;10.78;94.46;102965.06;5010351;28;20021;-81
2021/11/19 00:21:24;;;;;;;12.38;5.28;;;;;;;10.78;94.54;102967.69;5043265;28;20039;-81
2021/11/19 00:23:51;;;;;;;7.75;4.88;;;;;;;10.78;94.34;102967.69;5044469;28;20197;-81
2021/11/19 00:26:17;;;;;;;8.75;5.57;;;;;;;10.79;94.57;102974.66;5008294;28;20051;-81
2021/11/19 00:28:42;;;;;;;9.77;4.95;;;;;;;10.79;94.47;102974.66;5018168;28;20348;-81
2021/11/19 00:31:07;;;;;;;8.75;5.18;;;;;;;10.79;94.48;102975.56;5044266;28;20041;-81
2021/11/19 00:33:36;;;;;;;6.57;4.38;;;;;;;10.79;94.59;102969.41;5043997;28;20084;-81
2021/11/19 00:36:02;;;;;;;6.45;5.50;;;;;;;10.79;94.34;102982.53;5027377;28;20068;-81
2021/11/19 00:38:28;;;;;;;6.82;5.38;;;;;;;10.80;94.46;102976.41;5063670;28;20051;-81
2021/11/19 00:40:59;;;;;;;14.35;6.05;;;;;;;10.80;94.47;102987.75;5035449;28;20068;-81
2021/11/19 00:43:25;;;;;;;14.23;6.10;;;;;;;10.80;94.60;102979.91;5033087;28;20598;-81
2021/11/19 00:45:50;;;;;;;19.33;6.53;;;;;;;10.80;94.47;102977.28;5061189;28;20037;-81
2021/11/19 00:48:16;;;;;;;9.73;5.95;;;;;;;10.80;94.37;102979.03;5031809;28;20046;-81
2021/11/19 00:50:46;;;;;;;18.58;7.30;;;;;;;10.79;94.46;102975.56;5039348;28;20040;-81
2021/11/19 00:53:12;;;;;;;11.80;7.13;;;;;;;10.79;94.13;102977.28;5027557;28;20025;-81
2021/11/19 00:55:37;;;;;;;15.95;6.18;;;;;;;10.79;94.50;102983.41;5061286;28;20237;-81
2021/11/19 00:58:03;;;;;;;10.23;6.70;;;;;;;10.79;94.27;102983.41;5043780;28;20111;-81
2021/11/19 01:00:32;;;;;;;14.23;8.07;;;;;;;10.79;94.59;102978.16;5023891;28;20033;-81
2021/11/19 01:02:58;;;;;;;20.83;7.82;;;;;;;10.78;94.60;102986.91;5024503;28;20048;-81
2021/11/19 01:05:23;;;;;;;14.43;7.85;;;;;;;10.79;94.49;102982.53;5039976;28;20049;-81
2021/11/19 01:07:49;;;;;;;12.35;7.38;;;;;;;10.78;94.61;102980.81;5008116;28;20105;-81
2021/11/19 01:10:18;;;;;;;12.95;8.35;;;;;;;10.78;94.50;102967.69;5023909;28;20045;-81
2021/11/19 01:12:43;;;;;;;18.13;8.48;;;;;;;10.77;94.63;102972.06;5024655;28;20034;-81
2021/11/19 01:15:12;;;;;;;14.07;7.78;;;;;;;10.77;94.68;102966.84;5023498;28;20033;-81
2021/11/19 01:17:53;;;;;;;16.20;7.68;;;;;;;10.76;94.65;102965.09;5040430;28;20052;-81
2021/11/19 01:20:40;;;;;;;12.02;7.30;;;;;;;10.77;94.44;102972.06;5024113;28;20042;-81
2021/11/19 01:23:10;;;;;;;12.60;7.40;;;;;;;10.76;94.36;102970.31;5007585;28;20044;-81
2021/11/19 01:25:37;;;;;;;12.80;7.13;;;;;;;10.76;94.44;102971.19;5039657;28;20041;-81
2021/11/19 01:28:02;;;;;;;15.55;7.45;;;;;;;10.77;94.68;102964.22;5041261;28;20089;-81
2021/11/19 01:30:32;;;;;;;10.90;7.32;;;;;;;10.77;94.66;102969.47;5040513;28;20229;-81
2021/11/19 01:32:57;;;;;;;12.57;7.25;;;;;;;10.77;94.70;102964.22;5023215;28;20021;-81
2021/11/19 01:35:23;;;;;;;17.25;6.82;;;;;;;10.78;94.68;102960.69;5022413;28;20083;-81
2021/11/19 01:37:48;;;;;;;13.00;7.13;;;;;;;10.77;94.70;102974.69;5023385;28;20064;-81
2021/11/19 01:40:15;;;;;;;10.85;6.75;;;;;;;10.78;94.69;102967.69;5039604;28;20029;-81
2021/11/19 01:42:44;;;;;;;11.55;7.07;;;;;;;10.78;94.70;102967.69;5006953;28;20097;-81
2021/11/19 01:45:12;;;;;;;;;;;;;;;10.79;94.62;102975.56;5023638;28;20086;-81
2021/11/19 01:47:39;;;;;;;9.63;6.70;;;;;;;10.78;94.86;102962.44;5039463;28;19912;-81
2021/11/19 01:50:09;;;;;;;13.38;7.53;;;;;;;10.79;94.64;102964.19;5035217;28;20052;-81
2021/11/19 01:52:49;;;;;;;13.48;6.90;;;;;;;10.78;94.81;102965.94;5013098;28;20232;-81
2021/11/19 01:55:21;;;;;;;14.70;7.00;;;;;;;10.78;94.85;102962.44;5012050;28;20033;-81
2021/11/19 01:58:07;;;;;;;12.65;7.00;;;;;;;10.77;94.71;102964.22;5024675;28;20034;-81
2021/11/19 02:00:33;;;;;;;14.23;6.65;;;;;;;10.78;94.68;102958.06;5021992;28;20254;-81
2021/11/19 02:02:58;;;;;;;12.80;6.95;;;;;;;10.79;94.92;102964.19;5037850;28;20040;-81
2021/11/19 02:05:24;;;;;;;16.75;6.90;;;;;;;10.80;94.85;102969.41;5022392;28;20127;-81
2021/11/19 02:07:52;;;;;;;10.18;6.45;;;;;;;10.81;94.70;102970.31;5039043;28;20364;-81
2021/11/19 02:10:53;;;;;;;12.85;7.00;;;;;;;10.79;94.93;102967.69;5039394;28;20044;-81
2021/11/19 02:13:48;;;;;;;13.48;7.22;;;;;;;10.82;94.92;102958.91;5040476;28;20538;-81
2021/11/19 02:16:23;;;;;;;15.13;7.28;;;;;;;10.83;95.02;102958.91;5039534;28;20037;-81
2021/11/19 02:18:57;;;;;;;12.32;6.57;;;;;;;10.83;94.74;102958.06;5023865;28;20419;-81
2021/11/19 02:21:28;;;;;;;11.05;7.05;;;;;;;10.84;94.72;102962.41;5038948;28;20040;-81
2021/11/19 02:24:04;;;;;;;10.20;5.68;;;;;;;10.84;95.13;102965.00;5006622;28;20056;-81
2021/11/19 02:26:39;;;;;;;16.00;7.63;;;;;;;10.85;94.88;102967.63;5022526;28;20036;-81
2021/11/19 02:29:05;;;;;;;12.18;6.38;;;;;;;10.86;95.07;102965.88;5022836;28;20104;-81
2021/11/19 02:31:33;;;;;;;10.77;6.65;;;;;;;10.86;95.26;102958.00;5038659;28;20094;-81
2021/11/19 02:33:59;;;;;;;12.23;6.45;;;;;;;10.87;95.05;102963.25;5006287;28;20021;-81
2021/11/19 02:36:34;;;;;;;9.80;6.50;;;;;;;10.87;95.17;102952.75;5022122;28;20037;-81
2021/11/19 02:39:22;;;;;;;14.80;6.72;;;;;;;10.87;95.19;102950.13;5039070;28;20049;-81
2021/11/19 02:42:00;;;;;;;11.23;7.20;;;;;;;10.89;95.38;102947.50;5023097;28;20064;-81
2021/11/19 02:44:27;;;;;;;13.70;6.93;;;;;;;10.89;95.34;102943.13;5038698;28;20049;-81
2021/11/19 02:46:55;;;;;;;17.10;7.53;;;;;;;10.89;95.13;102943.13;5022529;28;20029;-81
2021/11/19 02:49:21;;;;;;;14.85;7.05;;;;;;;10.88;95.37;102938.78;5038277;28;20053;-81
2021/11/19 02:51:47;;;;;;;19.67;7.00;;;;;;;10.89;95.19;102939.63;5022444;28;20056;-81
2021/11/19 02:54:14;;;;;;;16.38;7.38;;;;;;;10.88;95.33;102933.53;5039872;28;20045;-81
2021/11/19 02:56:40;;;;;;;16.80;7.80;;;;;;;10.89;95.33;102934.41;5022355;28;20044;-81
2021/11/19 02:59:06;;;;;;;16.40;7.50;;;;;;;10.88;95.27;102933.53;5022307;28;20121;-81
2021/11/19 03:01:35;;;;;;;17.13;7.60;;;;;;;10.88;95.38;102941.41;5038279;28;20037;-81
2021/11/19 03:04:04;;;;;;;13.27;6.65;;;;;;;10.88;95.52;102943.16;5022693;28;20021;-81
2021/11/19 03:06:43;;;;;;;17.05;7.30;;;;;;;10.88;95.62;102949.25;5023597;28;20035;-81
2021/11/19 03:09:08;;;;;;;12.43;6.40;;;;;;;10.89;95.66;102944.88;5021651;28;20061;-81
2021/11/19 03:11:34;;;;;;;15.00;7.22;;;;;;;10.89;95.36;102937.88;5037357;28;20030;-80
2021/11/19 03:14:00;;;;;;;13.68;7.32;;;;;;;10.89;95.56;102935.25;5038389;28;20087;-79
2021/11/19 03:16:27;;;;;;;11.77;6.68;;;;;;;10.88;95.56;102936.16;5023488;28;20201;-79
2021/11/19 03:18:52;;;;;;;13.80;7.22;;;;;;;10.89;95.45;102927.41;5025234;28;20030;-79
2021/11/19 03:21:18;;;;;;;10.32;6.85;;;;;;;10.90;95.61;102936.16;5040524;28;20086;-80
2021/11/19 03:23:43;;;;;;;12.85;6.65;;;;;;;10.91;95.88;102932.63;5041390;28;20088;-80
2021/11/19 03:26:09;;;;;;;13.85;6.57;;;;;;;10.90;95.86;102933.53;5024672;28;20052;-79
2021/11/19 03:28:35;;;;;;;10.98;7.05;;;;;;;10.91;95.61;102928.28;5024365;28;20037;-79
2021/11/19 03:31:07;;;;;;;13.00;7.05;;;;;;;10.92;95.82;102934.38;5008774;28;20041;-79
2021/11/19 03:33:34;;;;;;;15.75;6.72;;;;;;;10.93;95.63;102936.09;5041265;28;20017;-80
2021/11/19 03:35:59;;;;;;;20.13;7.07;;;;;;;10.93;95.74;102934.38;5042671;28;20034;-79
2021/11/19 03:38:26;;;;;;;11.18;6.97;;;;;;;10.94;96.03;102940.47;5008041;28;20065;-79
2021/11/19 03:40:52;;;;;;;12.45;7.32;;;;;;;10.94;95.90;102936.09;5025413;28;20266;-79
2021/11/19 03:43:21;;;;;;;14.73;7.18;;;;;;;10.94;96.08;102935.22;5042109;28;20400;-79
2021/11/19 03:45:50;;;;;;;18.23;7.20;;;;;;;10.94;95.67;102936.09;5024305;28;20041;-80
2021/11/19 03:48:16;;;;;;;17.00;7.60;;;;;;;10.95;95.84;102935.22;5024047;28;20064;-79
2021/11/19 03:50:50;;;;;;;21.52;7.75;;;;;;;10.95;95.86;102931.72;5008067;28;20052;-79
2021/11/19 03:53:16;;;;;;;19.05;8.20;;;;;;;10.96;95.95;102938.72;5041960;28;20036;-81
2021/11/19 03:55:46;;;;;;;15.38;8.07;;;;;;;10.97;95.88;102950.06;5041371;28;20032;-81
2021/11/19 03:58:15;;;;;;;20.25;8.43;;;;;;;10.97;96.03;102947.44;5041710;28;20029;-81
2021/11/19 04:00:49;;;;;;;15.73;8.15;;;;;;;10.95;96.11;102945.72;5028866;28;20038;-81
2021/11/19 04:03:15;;;;;;;16.77;8.45;;;;;;;10.97;96.10;102947.44;5044857;28;20037;-81
2021/11/19 04:05:41;;;;;;;16.90;8.80;;;;;;;10.98;95.92;102943.94;5012375;28;20049;-81
2021/11/19 04:08:07;;;;;;;20.58;9.73;;;;;;;10.99;95.97;102943.03;5028476;28;20029;-81
2021/11/19 04:10:33;;;;;;;20.77;8.80;;;;;;;10.99;96.29;102950.91;5062180;28;20043;-81
2021/11/19 04:12:58;;;;;;;21.17;9.48;;;;;;;11.00;96.16;102948.28;5061896;28;20017;-81
2021/11/19 04:15:35;;;;;;;20.98;10.70;;;;;;;11.02;96.03;102954.38;5043660;28;20052;-81
2021/11/19 04:18:00;;;;;;;17.75;9.88;;;;;;;11.02;96.27;102948.25;5028277;28;20382;-81
2021/11/19 04:20:26;;;;;;;21.45;10.15;;;;;;;11.03;96.35;102947.41;5026962;28;20140;-81
2021/11/19 04:22:51;;;;;;;15.45;10.02;;;;;;;11.04;96.14;102943.88;5044201;28;20214;-81
2021/11/19 04:25:18;;;;;;;20.52;10.25;;;;;;;11.03;96.20;102953.50;5027731;28;20273;-81
2021/11/19 04:27:43;;;;;;;15.43;9.50;;;;;;;11.05;96.07;102956.97;5036277;28;20032;-81
2021/11/19 04:30:13;;;;;;;19.98;9.85;;;;;;;11.06;96.23;102960.47;5044175;28;20029;-81
2021/11/19 04:32:39;;;;;;;13.93;8.75;;;;;;;11.07;96.35;102965.69;5041017;28;20302;-81
2021/11/19 04:35:05;;;;;;;18.70;9.48;;;;;;;11.09;96.34;102963.06;5011123;28;20033;-81
2021/11/19 04:37:30;;;;;;;16.05;9.68;;;;;;;11.09;96.40;102961.31;5027719;28;20048;-81
2021/11/19 04:39:56;;;;;;;25.70;10.27;;;;;;;11.10;95.98;102965.69;5044220;28;20041;-81
2021/11/19 04:42:21;;;;;;;17.80;10.07;;;;;;;11.11;96.06;102959.56;5027363;28;20267;-81
2021/11/19 04:44:47;;;;;;;15.10;8.13;;;;;;;11.13;95.96;102959.53;5043900;28;20108;-81
2021/11/19 04:47:12;;;;;;;17.58;9.13;;;;;;;11.13;96.20;102956.91;5043803;28;20037;-81
2021/11/19 04:49:38;;;;;;;18.05;9.45;;;;;;;11.13;96.22;102957.78;5010720;28;20032;-81
2021/11/19 04:52:05;;;;;;;14.77;8.88;;;;;;;11.14;96.09;102959.50;5027242;28;20023;-81
2021/11/19 04:54:31;;;;;;;15.68;8.40;;;;;;;11.16;96.16;102961.25;5026537;28;20340;-81
2021/11/19 04:56:56;;;;;;;21.63;8.93;;;;;;;11.16;96.07;102967.38;5043496;28;20048;-81
2021/11/19 04:59:22;;;;;;;11.45;8.70;;;;;;;11.16;95.75;102961.25;5061093;28;20059;-81
2021/11/19 05:01:53;;;;;;;15.30;8.98;;;;;;;11.18;95.75;102964.75;5027231;28;20221;-81
2021/11/19 05:04:18;;;;;;;20.52;9.38;;;;;;;11.17;95.91;102953.38;5027311;28;20059;-81
2021/11/19 05:06:44;;;;;;;17.23;9.55;;;;;;;11.17;95.96;102950.75;5027630;28;20380;-81
2021/11/19 05:09:10;;;;;;;15.75;8.93;;;;;;;11.18;95.77;102951.63;5027368;28;20028;-81
2021/11/19 05:11:49;;;;;;;23.65;9.50;;;;;;;11.16;95.59;102951.63;5026851;28;20091;-81
2021/11/19 05:14:14;;;;;;;23.08;10.18;;;;;;;11.16;95.49;102959.50;5011001;28;20209;-81
2021/11/19 05:16:40;;;;;;;15.80;9.48;;;;;;;11.16;95.75;102963.88;5010881;28;20099;-81
2021/11/19 05:19:05;;;;;;;24.73;9.32;;;;;;;11.16;95.70;102956.03;5043519;28;20024;-81
2021/11/19 05:21:31;;;;;;;19.13;9.23;;;;;;;11.16;95.79;102942.91;5026534;28;20025;-81
2021/11/19 05:23:57;;;;;;;17.48;8.48;;;;;;;11.14;95.77;102943.78;5043994;28;20041;-81
2021/11/19 05:26:22;;;;;;;21.08;9.40;;;;;;;11.14;95.71;102948.16;5042802;28;20028;-81
2021/11/19 05:28:47;;;;;;;19.80;9.00;;;;;;;11.14;95.53;102954.25;5026804;28;20265;-81
2021/11/19 05:31:14;;;;;;;14.88;8.43;;;;;;;11.13;95.76;102952.53;5042783;28;20358;-81
2021/11/19 05:33:40;;;;;;;17.35;8.00;;;;;;;11.14;95.48;102941.16;5042817;28;20040;-81
2021/11/19 05:36:05;;;;;;;15.70;8.32;;;;;;;11.14;95.46;102954.25;5026445;28;20087;-81
2021/11/19 05:38:31;;;;;;;15.23;7.68;;;;;;;11.14;95.68;102958.66;5034976;28;20357;-81
2021/11/19 05:40:56;;;;;;;13.88;7.70;;;;;;;11.13;95.73;102963.03;5009641;28;20280;-81
2021/11/19 05:43:23;;;;;;;15.63;7.50;;;;;;;11.13;95.58;102956.91;5026373;28;20067;-81
2021/11/19 05:45:48;;;;;;;12.57;7.43;;;;;;;11.12;95.39;102953.41;5061455;28;20037;-81
2021/11/19 05:48:14;;;;;;;15.32;7.45;;;;;;;11.12;95.57;102957.81;5026309;28;20240;-81
2021/11/19 05:50:40;;;;;;;13.63;7.85;;;;;;;11.13;95.71;102956.91;5026338;28;20037;-81
2021/11/19 05:53:07;;;;;;;15.45;7.30;;;;;;;11.13;95.19;102959.53;5026366;28;20031;-81
2021/11/19 05:55:35;;;;;;;18.77;7.45;;;;;;;11.12;95.42;102957.81;5060285;28;20348;-81
2021/11/19 05:58:01;;;;;;;15.77;6.97;;;;;;;11.12;95.42;102960.41;5010492;28;20021;-81
2021/11/19 06:00:32;;;;;;;16.90;6.47;;;;;;;11.12;95.20;102968.28;5041895;28;20051;-81
2021/11/19 06:02:58;;;;;;;13.48;6.38;;;;;;;11.11;95.40;102970.06;5043148;28;20063;-81
2021/11/19 06:05:23;;;;;;;18.05;6.38;;;;;;;11.10;95.06;102968.31;5025507;28;20052;-81
2021/11/19 06:07:49;;;;;;;17.15;6.55;;;;;;;11.11;95.35;102963.91;5042780;28;20058;-81
2021/11/19 06:10:18;;;;;;;15.32;5.82;;;;;;;11.11;95.29;102972.69;5042119;28;20579;-81
2021/11/19 06:12:49;;;;;;;13.63;5.95;;;;;;;11.10;95.26;102962.19;5026649;28;20056;-81
2021/11/19 06:15:26;;;;;;;12.50;5.53;;;;;;;11.12;95.36;102971.78;5026271;28;20033;-81
2021/11/19 06:17:54;;;;;;;9.30;5.43;;;;;;;11.11;95.06;102975.28;5026704;28;20140;-81
2021/11/19 06:20:34;;;;;;;13.63;5.05;;;;;;;11.12;95.22;102976.16;5009007;28;20029;-81
2021/11/19 06:23:06;;;;;;;9.70;4.35;;;;;;;11.12;95.37;102976.16;5010780;28;20032;-81
2021/11/19 06:25:32;;;;;;;8.48;5.22;;;;;;;11.12;95.00;102973.53;5042536;28;20033;-81
2021/11/19 06:28:00;;;;;;;10.63;4.88;;;;;;;11.12;95.40;102976.16;5026919;28;20052;-82
2021/11/19 06:30:25;;;;;;;19.13;5.07;;;;;;;11.12;95.23;102970.91;5025462;28;20213;-81
2021/11/19 06:32:51;;;;;;;12.63;4.88;;;;;;;11.13;95.20;102976.16;5025219;28;20047;-81
2021/11/19 06:35:16;;;;;;;11.43;5.45;;;;;;;11.13;95.42;102977.88;5025852;28;20045;-81
2021/11/19 06:37:42;;;;;;;11.05;4.85;;;;;;;11.12;95.08;102970.91;5044574;28;20025;-81
2021/11/19 06:40:11;;;;;;;17.48;4.97;;;;;;;11.12;95.42;102982.25;5022416;28;20029;-81
2021/11/19 06:42:37;;;;;;;9.35;4.57;;;;;;;11.11;95.09;102975.28;5025445;28;20041;-81
2021/11/19 06:45:03;;;;;;;15.52;4.88;;;;;;;11.12;95.16;102979.63;5042240;28;20267;-81
2021/11/19 06:47:29;;;;;;;14.93;5.50;;;;;;;11.12;95.20;102974.41;5040854;28;20056;-81
2021/11/19 06:49:54;;;;;;;11.50;4.97;;;;;;;11.12;95.01;102973.53;5042391;28;20029;-81
2021/11/19 06:52:20;;;;;;;15.20;5.20;;;;;;;11.11;95.25;102980.53;5059527;28;20045;-80
2021/11/19 06:54:45;;;;;;;12.82;4.75;;;;;;;11.12;95.33;102989.28;5023924;28;20029;-81
2021/11/19 06:57:10;;;;;;;13.35;4.82;;;;;;;11.10;95.17;102991.03;5041299;28;20040;-81
2021/11/19 06:59:36;;;;;;;12.05;5.03;;;;;;;11.10;95.30;102988.41;5023040;28;20052;-81
2021/11/19 07:02:03;;;;;;;10.82;4.40;;;;;;;11.09;95.13;102998.00;5007685;28;20072;-81
2021/11/19 07:04:29;;;;;;;14.95;4.90;;;;;;;11.09;95.07;102995.38;5033678;28;20332;-81
2021/11/19 07:06:54;;;;;;;13.88;4.68;;;;;;;11.08;95.12;102996.28;5059657;28;20045;-82
2021/11/19 07:09:20;;;;;;;8.48;4.78;;;;;;;11.07;95.19;102994.53;5038701;28;20036;-81
2021/11/19 07:11:45;;;;;;;10.48;4.25;;;;;;;11.07;95.14;103007.66;5059717;28;20028;-81
2021/11/19 07:14:11;;;;;;;12.02;4.28;;;;;;;11.06;95.10;103002.41;5024191;28;20048;-81
2021/11/19 07:16:37;;;;;;;10.43;4.18;;;;;;;11.05;95.17;103012.03;5059700;28;20021;-81
2021/11/19 07:19:03;;;;;;;14.48;4.78;;;;;;;11.05;95.11;103019.91;5021662;28;20045;-81
2021/11/19 07:21:28;;;;;;;15.15;4.57;;;;;;;11.04;95.17;103020.81;5006059;28;20024;-81
2021/11/19 07:23:54;;;;;;;13.20;4.93;;;;;;;11.03;95.48;103023.44;5021647;28;20152;-81
2021/11/19 07:26:20;;;;;;;19.80;5.57;;;;;;;11.04;95.09;103014.66;5040366;28;20444;-81
2021/11/19 07:28:45;;;;;;;13.48;5.15;;;;;;;11.04;95.21;103022.53;5023701;28;20033;-81
2021/11/19 07:31:11;;;;;;;9.13;5.05;;;;;;;11.03;95.28;103024.28;5020308;28;20374;-81
2021/11/19 07:33:36;;;;;;;15.32;4.93;;;;;;;11.03;95.31;103023.44;5019779;28;20531;-81
2021/11/19 07:36:04;;;;;;;14.55;5.25;;;;;;;11.02;95.56;103027.78;5006074;28;20040;-81
2021/11/19 07:38:30;;;;;;;15.82;4.90;;;;;;;11.02;95.29;103027.78;5018670;28;20035;-81
2021/11/19 07:40:55;;;;;;;13.30;5.45;;;;;;;11.02;95.16;103027.78;5021010;28;20224;-81
2021/11/19 07:43:22;;;;;;;11.88;4.93;;;;;;;11.01;95.22;103035.69;5038087;28;20283;-81
2021/11/19 07:45:48;;;;;;;14.70;5.25;;;;;;;11.01;95.16;103036.56;5023966;28;20206;-81
2021/11/19 07:48:16;;;;;;;15.55;4.88;;;;;;;11.01;95.20;103035.69;5022770;28;20343;-81
2021/11/19 07:50:44;;;;;;;16.70;4.73;;;;;;;11.02;95.35;103040.91;5022169;28;20104;-81
2021/11/19 07:53:09;;;;;;;8.13;3.70;;;;;;;11.02;95.52;103038.28;5006321;28;20275;-81
2021/11/19 07:55:35;;;;;;;14.07;4.13;;;;;;;11.02;95.42;103042.66;5039529;28;20063;-81
2021/11/19 07:58:00;;;;;;;11.25;4.38;;;;;;;11.02;95.39;103046.13;5020303;28;20041;-81
2021/11/19 08:00:28;;;;;;;13.70;4.63;;;;;;;11.02;95.51;103054.00;5000750;28;20041;-81
2021/11/19 08:02:53;;;;;;;17.60;4.32;;;;;;;11.04;95.33;103051.38;5027306;28;20106;-81
2021/11/19 08:05:19;;;;;;;15.70;3.80;;;;;;;11.03;95.58;103055.75;5026057;28;20321;-81
2021/11/19 08:07:45;;;;;;;12.05;3.50;;;;;;;11.04;95.78;103052.28;5010407;28;20271;-81
2021/11/19 08:10:10;;;;;;;23.05;4.15;;;;;;;11.04;95.35;103051.38;5044339;28;20041;-81
2021/11/19 08:12:37;;;;;;;13.85;4.05;;;;;;;11.05;95.80;103053.13;5043711;28;20041;-81
2021/11/19 08:15:03;;;;;;;13.80;4.15;;;;;;;11.06;95.42;103055.75;5043816;28;20033;-81
2021/11/19 08:17:38;;;;;;;7.45;3.22;;;;;;;11.06;95.43;103055.75;5041841;28;20032;-81
2021/11/19 08:20:06;;;;;;;14.38;3.95;;;;;;;11.08;95.58;103058.38;5024087;28;20044;-81
2021/11/19 08:22:33;;;;;;;13.73;3.65;;;;;;;11.09;95.42;103049.59;5040475;28;20272;-81
2021/11/19 08:24:58;;;;;;;8.55;3.17;;;;;;;11.09;95.44;103060.09;5010812;28;20040;-81
2021/11/19 08:27:31;;;;;;;4.60;2.95;;;;;;;11.11;95.40;103053.06;5043209;28;20359;-81
2021/11/19 08:29:57;;;;;;;7.38;3.25;;;;;;;11.12;95.59;103057.44;5011307;28;20021;-81
2021/11/19 08:32:23;;;;;;;10.38;3.78;;;;;;;11.11;95.66;103053.06;5010853;28;20428;-81
2021/11/19 08:34:48;;;;;;;8.07;2.95;;;;;;;11.12;95.33;103055.69;5043362;28;20060;-81
2021/11/19 08:37:15;;;;;;;16.63;4.65;;;;;;;11.12;95.51;103050.44;5009822;28;20016;-81
2021/11/19 08:39:41;;;;;;;10.00;3.47;;;;;;;11.12;95.43;103047.81;5043143;28;20363;-81
2021/11/19 08:42:08;;;;;;;6.55;3.30;;;;;;;11.14;95.55;103051.31;5041483;28;20041;-81
2021/11/19 08:44:34;;;;;;;14.57;3.58;;;;;;;11.14;95.47;103048.69;5003611;28;20025;-81
2021/11/19 08:46:59;;;;;;;6.80;2.95;;;;;;;11.16;95.37;103055.69;5008905;28;20161;-81
2021/11/19 08:49:27;;;;;;;17.00;4.20;;;;;;;11.18;95.46;103059.16;5042207;28;20033;-81
2021/11/19 08:51:53;;;;;;;15.43;3.70;;;;;;;11.19;95.56;103060.88;5019747;28;20320;-81
2021/11/19 08:54:18;;;;;;;5.82;3.08;;;;;;;11.20;95.76;103060.88;5017894;28;20048;-81
2021/11/19 08:56:48;;;;;;;6.68;3.33;;;;;;;11.21;95.58;103065.25;5019348;28;20025;-81
2021/11/19 08:59:14;;;;;;;13.05;3.85;;;;;;;11.22;95.39;103064.34;5025820;28;20407;-81
2021/11/19 09:01:43;;;;;;;12.85;4.05;;;;;;;11.22;95.61;103072.22;5026313;28;20064;-81
2021/11/19 09:04:09;;;;;;;12.27;4.00;;;;;;;11.23;95.40;103067.84;5041040;28;20029;-81
2021/11/19 09:06:34;;;;;;;4.50;3.33;;;;;;;11.24;95.23;103067.84;5060054;28;20035;-81
2021/11/19 09:09:00;;;;;;;7.93;3.58;;;;;;;11.25;95.48;103072.19;5040091;28;20302;-81
2021/11/19 09:11:25;;;;;;;8.13;3.03;;;;;;;11.26;95.16;103071.34;5025915;28;20218;-81
2021/11/19 09:13:52;;;;;;;12.10;4.32;;;;;;;11.27;95.54;103059.06;5058671;28;20126;-81
2021/11/19 09:16:20;;;;;;;7.43;3.88;;;;;;;11.28;95.50;103069.56;5006121;28;20337;-81
2021/11/19 09:19:08;;;;;;;9.68;3.70;;;;;;;11.29;95.15;103075.66;5039446;28;20285;-81
2021/11/19 09:21:50;;;;;;;12.00;3.97;;;;;;;11.28;95.02;103077.44;5040952;28;20340;-81
2021/11/19 09:24:21;;;;;;;9.13;3.60;;;;;;;11.29;94.93;103075.66;5000321;28;20025;-82
2021/11/19 09:26:52;;;;;;;7.70;3.60;;;;;;;11.28;95.07;103074.81;5022821;28;20064;-82
2021/11/19 09:29:25;;;;;;;7.00;4.20;;;;;;;11.29;95.12;103063.41;5023533;28;20108;-81
2021/11/19 09:31:51;;;;;;;9.00;4.93;;;;;;;11.30;94.78;103072.19;5026557;28;20087;-81
2021/11/19 09:34:17;;;;;;;11.15;4.35;;;;;;;11.29;94.76;103071.28;5023930;28;20033;-81
2021/11/19 09:36:42;;;;;;;12.27;5.40;;;;;;;11.30;94.82;103069.56;5024885;28;20028;-81
2021/11/19 09:39:15;;;;;;;8.07;4.22;;;;;;;11.29;94.73;103067.81;5040036;28;20445;-81
2021/11/19 09:41:49;;;;;;;10.20;4.53;;;;;;;11.28;94.60;103082.69;5008815;28;20074;-81
2021/11/19 09:44:55;;;;;;;11.05;4.47;;;;;;;11.27;94.50;103077.44;5041578;28;20092;-81
2021/11/19 09:47:51;;;;;;;10.02;4.28;;;;;;;11.27;94.25;103080.06;5001749;28;20046;-81
2021/11/19 09:50:19;;;;;;;14.02;4.80;;;;;;;11.26;94.16;103081.81;5058130;28;20291;-81
2021/11/19 09:53:09;;;;;;;16.50;4.20;;;;;;;11.25;94.02;103073.97;5060041;28;20279;-81
2021/11/19 09:56:02;;;;;;;8.65;3.85;;;;;;;11.22;93.90;103074.84;5041630;28;20209;-81
2021/11/19 09:58:45;;;;;;;5.07;3.80;;;;;;;11.23;94.06;103078.34;5043694;28;20041;-81
2021/11/19 10:01:38;;;;;;;8.43;3.25;;;;;;;11.24;94.26;103080.06;5023279;28;20041;-81
2021/11/19 10:04:19;;;;;;;10.07;4.03;;;;;;;11.24;94.02;103082.69;5057761;28;20385;-81
2021/11/19 10:06:52;;;;;;;10.38;3.85;;;;;;;11.23;93.97;103083.59;5053454;28;20060;-81
2021/11/19 10:09:31;;;;;;;10.25;4.20;;;;;;;11.24;93.92;103085.31;5047879;28;20024;-81
2021/11/19 10:12:01;;;;;;;6.43;3.83;;;;;;;11.23;94.14;103087.09;5059068;28;20052;-81
2021/11/19 10:14:42;;;;;;;3.40;2.88;;;;;;;11.24;94.06;103083.59;5041944;28;20112;-81
2021/11/19 10:17:46;;;;;;;10.90;4.15;;;;;;;11.26;93.98;103089.69;5041239;28;20043;-81
2021/11/19 10:20:22;;;;;;;7.07;4.93;;;;;;;11.29;94.19;103091.41;5034254;28;20025;-81
2021/11/19 10:23:20;;;;;;;8.48;5.78;;;;;;;11.30;94.08;103096.66;5026256;28;20247;-81
2021/11/19 10:26:05;;;;;;;11.52;9.55;;;;;;;11.30;93.67;103095.78;5024999;28;20037;-81
2021/11/19 10:28:46;;;;;;;11.75;7.68;;;;;;;11.30;93.88;103091.41;5040972;28;20028;-81
2021/11/19 10:31:13;;;;;;;8.20;6.20;;;;;;;11.31;93.92;103087.91;5041677;28;20332;-81
2021/11/19 10:33:45;;;;;;;9.80;5.65;;;;;;;11.32;93.66;103081.75;5024240;28;20025;-81
2021/11/19 10:36:24;;;;;;;6.45;5.15;;;;;;;11.35;93.70;103086.13;5027610;28;20412;-81
2021/11/19 10:39:26;;;;;;;9.90;5.13;;;;;;;11.39;93.88;103085.22;5055937;28;20236;-81
2021/11/19 10:42:13;;;;;;;12.43;4.15;;;;;;;11.44;93.79;103082.53;5058330;28;20037;-81
2021/11/19 10:44:59;;;;;;;6.47;3.45;;;;;;;11.47;93.73;103075.50;5050782;28;20050;-81
2021/11/19 10:47:43;;;;;;;9.10;3.05;;;;;;;11.51;93.75;103073.72;5034873;28;20051;-81
2021/11/19 10:50:26;;;;;;;7.25;3.53;;;;;;;11.55;93.28;103074.56;5058685;28;20036;-81
2021/11/19 10:53:25;;;;;;;3.05;2.50;;;;;;;11.58;93.23;103083.28;5021648;28;20036;-81
2021/11/19 10:56:09;;;;;;;3.42;2.45;;;;;;;11.57;93.13;103071.06;5037769;28;20373;-81
2021/11/19 10:58:43;;;;;;;4.90;1.98;;;;;;;11.58;92.83;103079.81;5036355;28;20344;-81
2021/11/19 11:01:58;;;;;;;4.05;2.20;;;;;;;11.56;92.38;103071.94;5020934;28;20036;-81
2021/11/19 11:04:37;;;;;;;11.05;2.85;;;;;;;11.56;92.50;103081.56;5039252;28;20040;-81
2021/11/19 11:07:09;;;;;;;6.60;2.33;;;;;;;11.56;92.16;103078.94;5023643;28;20347;-81
2021/11/19 11:09:46;;;;;;;6.00;1.92;;;;;;;11.57;92.27;103078.03;5056548;28;20035;-81
2021/11/19 11:12:14;;;;;;;7.60;2.10;;;;;;;11.58;92.15;103082.44;5038181;28;20100;-81
2021/11/19 11:14:42;;;;;;;6.60;2.58;;;;;;;11.57;92.04;103084.19;5038920;28;20029;-81
2021/11/19 11:17:27;;;;;;;8.07;2.30;;;;;;;11.58;92.15;103071.94;5022464;28;20033;-82
2021/11/19 11:19:57;;;;;;;5.57;2.47;;;;;;;11.60;92.36;103080.66;5037768;28;20041;-81
2021/11/19 11:22:25;;;;;;;4.00;1.92;;;;;;;11.63;92.33;103084.13;5004804;28;20029;-81
2021/11/19 11:24:58;;;;;;;3.97;2.40;;;;;;;11.67;92.34;103075.31;5040341;28;20332;-81
2021/11/19 11:27:49;;;;;;;4.47;2.20;;;;;;;11.71;92.31;103074.44;5032025;28;20056;-81
2021/11/19 11:30:17;;;;;;;3.38;1.92;;;;;;;11.76;92.18;103077.00;5049232;28;20044;-81
2021/11/19 11:33:04;;;;;;;4.53;2.20;;;;;;;11.77;91.96;103085.75;5011794;28;20017;-81